createdAt,value
2022-10-30T00:02:31.297Z,18.77
2022-10-30T00:05:33.518Z,18.93
2022-10-30T00:08:35.837Z,19.25
2022-10-30T00:11:37.999Z,18.42
2022-10-30T00:14:40.177Z,18.38
2022-10-30T00:17:42.316Z,17.77
2022-10-30T00:20:44.497Z,17.43
2022-10-30T00:23:48.807Z,18.02
2022-10-30T00:26:50.952Z,19.25
2022-10-30T00:29:53.168Z,18.80
2022-10-30T00:32:55.760Z,18.17
2022-10-30T00:35:58.386Z,19.17
2022-10-30T00:39:00.584Z,19.40
2022-10-30T00:42:02.790Z,18.55
2022-10-30T00:45:05.398Z,18.73
2022-10-30T00:48:10.037Z,19.02
2022-10-30T00:51:13.985Z,18.30
2022-10-30T00:54:18.204Z,18.52
2022-10-30T00:57:20.731Z,18.52
2022-10-30T01:00:24.595Z,19.50
2022-10-30T01:03:27.714Z,19.95
2022-10-30T01:06:32.987Z,19.93
2022-10-30T01:09:35.747Z,20.27
2022-10-30T01:12:38.586Z,19.13
2022-10-30T01:15:50.362Z,19.33
2022-10-30T01:19:33.587Z,20.00
2022-10-30T01:22:54.638Z,18.57
2022-10-30T01:26:08.946Z,19.80
2022-10-30T01:29:29.263Z,19.38
2022-10-30T01:32:49.730Z,19.13
2022-10-30T01:35:54.806Z,19.67
2022-10-30T01:39:01.133Z,18.53
2022-10-30T01:42:37.699Z,17.52
2022-10-30T01:46:10.747Z,18.30
2022-10-30T01:49:25.825Z,17.90
2022-10-30T01:52:50.030Z,17.13
2022-10-30T01:56:10.964Z,15.83
2022-10-30T01:59:29.698Z,15.68
2022-10-30T02:02:33.130Z,15.60
2022-10-30T02:05:43.094Z,14.85
2022-10-30T02:08:45.883Z,17.40
2022-10-30T02:11:48.502Z,15.23
2022-10-30T02:14:54.073Z,16.23
2022-10-30T02:17:57.108Z,16.55
2022-10-30T02:20:59.478Z,15.27
2022-10-30T02:24:01.740Z,15.20
2022-10-30T02:27:04.450Z,14.77
2022-10-30T02:30:08.115Z,14.32
2022-10-30T02:33:10.937Z,14.55
2022-10-30T02:36:16.346Z,14.48
2022-10-30T02:39:20.201Z,14.10
2022-10-30T02:42:23.238Z,15.07
2022-10-30T02:45:27.527Z,13.82
2022-10-30T02:48:33.239Z,14.60
2022-10-30T02:51:35.482Z,13.82
2022-10-30T02:54:37.674Z,14.55
2022-10-30T02:57:39.885Z,13.63
2022-10-30T03:00:42.221Z,13.48
2022-10-30T03:03:46.205Z,13.95
2022-10-30T03:06:48.369Z,13.02
2022-10-30T03:09:52.126Z,14.95
2022-10-30T03:12:54.426Z,14.43
2022-10-30T03:16:03.428Z,14.07
2022-10-30T03:19:07.523Z,15.00
2022-10-30T03:22:09.640Z,15.18
2022-10-30T03:25:13.438Z,14.55
2022-10-30T03:28:15.840Z,13.83
2022-10-30T03:31:19.400Z,15.43
2022-10-30T03:34:24.409Z,14.73
2022-10-30T03:37:26.618Z,14.70
2022-10-30T03:40:29.069Z,14.55
2022-10-30T03:43:31.471Z,14.80
2022-10-30T03:46:33.787Z,14.30
2022-10-30T03:49:49.708Z,14.00
2022-10-30T03:52:55.842Z,13.98
2022-10-30T03:56:03.419Z,13.73
2022-10-30T03:59:13.835Z,14.77
2022-10-30T04:05:25.352Z,14.52
2022-10-30T04:08:29.581Z,14.45
2022-10-30T04:11:32.772Z,14.38
2022-10-30T04:14:35.029Z,14.30
2022-10-30T04:17:37.155Z,14.55
2022-10-30T04:20:40.480Z,14.48
2022-10-30T04:23:43.490Z,14.63
2022-10-30T04:26:46.586Z,14.32
2022-10-30T04:29:49.726Z,15.50
2022-10-30T04:32:58.122Z,15.63
2022-10-30T04:36:01.803Z,14.82
2022-10-30T04:39:06.839Z,15.57
2022-10-30T04:42:11.059Z,15.50
2022-10-30T04:45:16.611Z,16.13
2022-10-30T04:48:19.720Z,15.00
2022-10-30T04:51:24.431Z,14.50
2022-10-30T04:54:28.968Z,13.65
2022-10-30T04:57:32.367Z,14.85
2022-10-30T05:00:35.662Z,13.67
2022-10-30T05:03:59.340Z,14.80
2022-10-30T05:07:04.073Z,15.55
2022-10-30T05:10:07.367Z,16.35
2022-10-30T05:13:11.329Z,16.73
2022-10-30T05:16:13.561Z,17.20
2022-10-30T05:19:16.807Z,17.80
2022-10-30T05:22:29.731Z,18.42
2022-10-30T05:25:32.037Z,18.85
2022-10-30T05:28:36.763Z,18.13
2022-10-30T05:31:41.007Z,17.87
2022-10-30T05:34:47.068Z,15.98
2022-10-30T05:37:54.324Z,16.70
2022-10-30T05:40:56.460Z,16.10
2022-10-30T05:44:00.003Z,17.33
2022-10-30T05:47:02.315Z,17.00
2022-10-30T05:50:08.868Z,16.63
2022-10-30T05:53:11.556Z,17.13
2022-10-30T05:56:14.822Z,16.23
2022-10-30T05:59:18.296Z,16.52
2022-10-30T06:02:21.077Z,16.30
2022-10-30T06:05:23.428Z,15.95
2022-10-30T06:08:25.644Z,17.30
2022-10-30T06:11:31.219Z,15.48
2022-10-30T06:14:35.270Z,16.02
2022-10-30T06:17:37.858Z,16.03
2022-10-30T06:21:06.296Z,15.55
2022-10-30T06:24:34.535Z,16.00
2022-10-30T06:28:06.753Z,15.73
2022-10-30T06:31:10.348Z,15.50
2022-10-30T06:34:14.570Z,15.80
2022-10-30T06:37:18.547Z,16.95
2022-10-30T06:40:22.091Z,16.35
2022-10-30T06:43:43.723Z,15.65
2022-10-30T06:47:01.567Z,15.70
2022-10-30T06:50:12.340Z,14.93
2022-10-30T06:53:15.440Z,14.50
2022-10-30T06:56:19.038Z,16.05
2022-10-30T06:59:42.175Z,15.23
2022-10-30T07:02:59.959Z,14.30
2022-10-30T07:06:03.668Z,15.43
2022-10-30T07:09:05.920Z,14.32
2022-10-30T07:12:08.960Z,15.25
2022-10-30T07:15:16.391Z,14.60
2022-10-30T07:18:30.871Z,15.23
2022-10-30T07:21:35.861Z,15.87
2022-10-30T07:24:41.076Z,15.05
2022-10-30T07:28:03.822Z,14.55
2022-10-30T07:31:35.214Z,13.75
2022-10-30T07:35:06.833Z,13.48
2022-10-30T07:38:28.518Z,14.33
2022-10-30T07:41:38.744Z,14.13
2022-10-30T07:45:01.848Z,13.75
2022-10-30T07:48:24.764Z,14.27
2022-10-30T07:51:42.296Z,15.05
2022-10-30T07:54:45.904Z,13.80
2022-10-30T07:58:06.831Z,13.85
2022-10-30T08:01:47.502Z,13.55
2022-10-30T08:05:09.830Z,13.38
2022-10-30T08:08:37.921Z,12.90
2022-10-30T08:11:58.921Z,13.07
2022-10-30T08:15:01.559Z,12.68
2022-10-30T08:18:03.970Z,13.18
2022-10-30T08:21:07.148Z,12.35
2022-10-30T08:24:10.039Z,13.30
2022-10-30T08:27:13.501Z,11.93
2022-10-30T08:30:16.004Z,13.63
2022-10-30T08:33:18.642Z,13.15
2022-10-30T08:36:51.396Z,12.93
2022-10-30T08:39:54.376Z,11.95
2022-10-30T08:43:10.993Z,12.73
2022-10-30T08:46:14.307Z,12.77
2022-10-30T08:49:16.696Z,12.38
2022-10-30T08:52:25.535Z,13.63
2022-10-30T08:55:32.134Z,13.30
2022-10-30T08:58:36.840Z,13.23
2022-10-30T09:01:39.226Z,13.02
2022-10-30T09:04:56.237Z,13.13
2022-10-30T09:08:17.020Z,12.80
2022-10-30T09:11:43.545Z,13.40
2022-10-30T09:14:45.769Z,12.70
2022-10-30T09:17:47.881Z,13.20
2022-10-30T09:20:51.555Z,13.82
2022-10-30T09:23:54.037Z,14.05
2022-10-30T09:27:19.160Z,12.88
2022-10-30T09:30:24.873Z,13.20
2022-10-30T09:33:28.663Z,13.65
2022-10-30T09:36:53.696Z,14.07
2022-10-30T09:39:56.013Z,12.52
2022-10-30T09:43:39.182Z,14.07
2022-10-30T09:46:47.153Z,14.07
2022-10-30T09:50:13.879Z,12.30
2022-10-30T09:53:35.807Z,12.93
2022-10-30T09:56:46.088Z,12.88
2022-10-30T09:59:54.562Z,11.73
2022-10-30T10:03:02.782Z,11.90
2022-10-30T10:06:18.170Z,12.27
2022-10-30T10:09:40.744Z,12.77
2022-10-30T10:13:04.086Z,11.43
2022-10-30T10:16:20.185Z,11.38
2022-10-30T10:19:33.870Z,12.63
2022-10-30T10:22:50.488Z,11.45
2022-10-30T10:25:54.072Z,12.95
2022-10-30T10:29:01.323Z,13.40
2022-10-30T10:32:18.028Z,11.52
2022-10-30T10:35:54.158Z,11.90
2022-10-30T10:39:16.578Z,11.50
2022-10-30T10:42:34.956Z,11.77
2022-10-30T10:45:48.538Z,11.77
2022-10-30T10:49:35.784Z,13.00
2022-10-30T10:52:46.997Z,11.53
2022-10-30T10:55:52.965Z,12.80
2022-10-30T10:58:57.817Z,12.93
2022-10-30T11:02:09.284Z,13.68
2022-10-30T11:05:24.443Z,13.40
2022-10-30T11:08:31.693Z,12.90
2022-10-30T11:11:33.928Z,12.57
2022-10-30T11:14:37.803Z,12.85
2022-10-30T11:17:44.269Z,13.40
2022-10-30T11:21:10.112Z,13.70
2022-10-30T11:24:34.619Z,13.33
2022-10-30T11:27:37.124Z,13.75
2022-10-30T11:30:39.257Z,13.45
2022-10-30T11:33:41.407Z,13.13
2022-10-30T11:36:44.919Z,13.63
2022-10-30T11:40:01.851Z,14.00
2022-10-30T11:43:05.030Z,12.57
2022-10-30T11:46:12.970Z,13.02
2022-10-30T11:49:33.323Z,11.88
2022-10-30T11:52:39.035Z,13.15
2022-10-30T11:55:48.507Z,13.03
2022-10-30T11:58:53.349Z,12.63
2022-10-30T12:02:04.012Z,11.95
2022-10-30T12:05:30.696Z,12.05
2022-10-30T12:08:32.962Z,11.60
2022-10-30T12:11:36.209Z,12.07
2022-10-30T12:14:38.456Z,12.90
2022-10-30T12:17:41.229Z,11.50
2022-10-30T12:20:46.023Z,11.52
2022-10-30T12:23:58.033Z,11.88
2022-10-30T12:27:03.684Z,10.83
2022-10-30T12:30:13.567Z,12.18
2022-10-30T12:33:18.475Z,11.10
2022-10-30T12:36:23.549Z,12.45
2022-10-30T12:40:01.129Z,11.93
2022-10-30T12:43:15.852Z,10.33
2022-10-30T12:46:30.080Z,11.13
2022-10-30T12:49:52.264Z,11.90
2022-10-30T12:53:18.306Z,12.27
2022-10-30T12:56:27.049Z,11.98
2022-10-30T12:59:59.634Z,12.03
2022-10-30T13:03:14.250Z,11.27
2022-10-30T13:06:22.670Z,11.35
2022-10-30T13:09:36.038Z,11.75
2022-10-30T13:12:39.897Z,11.05
2022-10-30T13:15:53.419Z,11.47
2022-10-30T13:18:57.790Z,11.80
2022-10-30T13:22:13.315Z,11.60
2022-10-30T13:25:27.343Z,10.63
2022-10-30T13:28:43.172Z,11.35
2022-10-30T13:32:03.410Z,10.83
2022-10-30T13:35:21.652Z,11.20
2022-10-30T13:38:32.915Z,11.68
2022-10-30T13:41:59.597Z,10.90
2022-10-30T13:45:33.683Z,11.27
2022-10-30T13:48:57.189Z,10.83
2022-10-30T13:52:19.493Z,10.93
2022-10-30T13:55:27.880Z,11.45
2022-10-30T13:59:14.485Z,11.77
2022-10-30T14:02:54.410Z,12.10
2022-10-30T14:06:09.381Z,12.13
2022-10-30T14:09:43.370Z,12.80
2022-10-30T14:12:50.857Z,12.18
2022-10-30T14:16:05.811Z,12.15
2022-10-30T14:19:14.975Z,12.52
2022-10-30T14:22:23.619Z,13.63
2022-10-30T14:25:25.769Z,13.13
2022-10-30T14:28:28.399Z,12.85
2022-10-30T14:31:35.669Z,12.80
2022-10-30T14:34:50.004Z,13.35
2022-10-30T14:37:52.125Z,13.63
2022-10-30T14:41:08.399Z,13.38
2022-10-30T14:44:37.559Z,14.32
2022-10-30T14:47:51.868Z,14.63
2022-10-30T14:51:05.933Z,14.48
2022-10-30T14:54:25.058Z,13.80
2022-10-30T14:58:07.682Z,13.90
2022-10-30T15:01:09.952Z,13.35
2022-10-30T15:04:22.987Z,14.13
2022-10-30T15:07:34.216Z,14.95
2022-10-30T15:10:36.769Z,13.90
2022-10-30T15:13:46.928Z,14.63
2022-10-30T15:16:52.237Z,14.30
2022-10-30T15:19:54.753Z,15.15
2022-10-30T15:23:03.976Z,15.18
2022-10-30T15:26:09.947Z,16.13
2022-10-30T15:29:18.810Z,16.70
2022-10-30T15:32:24.138Z,15.10
2022-10-30T15:35:28.329Z,15.40
2022-10-30T15:38:30.796Z,15.93
2022-10-30T15:41:35.705Z,15.53
2022-10-30T15:44:42.164Z,17.67
2022-10-30T15:47:49.375Z,17.10
2022-10-30T15:51:11.750Z,15.98
2022-10-30T15:54:19.492Z,17.40
2022-10-30T15:58:02.329Z,17.17
2022-10-30T16:00:59.412Z,17.60
2022-10-30T16:04:01.816Z,20.73
2022-10-30T16:07:18.194Z,27.90
2022-10-30T16:10:20.490Z,21.60
2022-10-30T16:13:30.342Z,21.33
2022-10-30T16:16:33.876Z,20.92
2022-10-30T16:19:40.597Z,20.85
2022-10-30T16:22:43.136Z,20.23
2022-10-30T16:25:47.427Z,21.27
2022-10-30T16:28:49.773Z,23.20
2022-10-30T16:31:52.298Z,21.17
2022-10-30T16:34:59.270Z,20.30
2022-10-30T16:38:03.627Z,23.27
2022-10-30T16:41:07.297Z,25.55
2022-10-30T16:44:12.527Z,20.53
2022-10-30T16:47:17.534Z,20.10
2022-10-30T16:50:20.383Z,20.33
2022-10-30T16:53:23.799Z,19.77
2022-10-30T16:56:30.415Z,19.60
2022-10-30T16:59:38.006Z,19.63
2022-10-30T17:02:45.926Z,19.30
2022-10-30T17:06:04.872Z,18.13
2022-10-30T17:09:22.922Z,17.20
2022-10-30T17:12:28.266Z,16.23
2022-10-30T17:15:32.900Z,16.47
2022-10-30T17:18:35.890Z,15.75
2022-10-30T17:21:42.053Z,15.45
2022-10-30T17:24:46.273Z,15.77
2022-10-30T17:27:50.727Z,14.77
2022-10-30T17:30:54.994Z,15.40
2022-10-30T17:34:20.190Z,15.95
2022-10-30T17:37:22.898Z,16.95
2022-10-30T17:40:25.322Z,16.20
2022-10-30T17:43:29.780Z,15.05
2022-10-30T17:46:32.319Z,15.40
2022-10-30T17:49:34.954Z,14.55
2022-10-30T17:52:37.249Z,15.93
2022-10-30T17:55:40.108Z,15.50
2022-10-30T17:58:42.975Z,16.25
2022-10-30T18:01:45.303Z,15.33
2022-10-30T18:04:48.961Z,18.17
2022-10-30T18:07:51.164Z,18.50
2022-10-30T18:10:53.693Z,15.73
2022-10-30T18:13:56.790Z,16.55
2022-10-30T18:16:59.214Z,15.50
2022-10-30T18:20:01.590Z,17.60
2022-10-30T18:23:05.007Z,17.65
2022-10-30T18:26:10.403Z,18.02
2022-10-30T18:29:13.502Z,16.92
2022-10-30T18:32:16.278Z,17.57
2022-10-30T18:35:21.544Z,17.55
2022-10-30T18:38:23.835Z,18.27
2022-10-30T18:41:36.038Z,19.25
2022-10-30T18:44:41.121Z,19.45
2022-10-30T18:47:43.331Z,19.33
2022-10-30T18:50:47.418Z,18.35
2022-10-30T18:53:53.710Z,18.83
2022-10-30T18:56:56.220Z,17.05
2022-10-30T18:59:58.903Z,18.25
2022-10-30T19:03:02.903Z,19.00
2022-10-30T19:06:10.725Z,19.48
2022-10-30T19:09:14.425Z,19.27
2022-10-30T19:12:18.163Z,20.60
2022-10-30T19:15:26.041Z,19.13
2022-10-30T19:18:29.312Z,24.33
2022-10-30T19:21:33.572Z,22.98
2022-10-30T19:24:38.930Z,20.83
2022-10-30T19:27:41.341Z,20.83
2022-10-30T19:30:50.328Z,20.30
2022-10-30T19:33:57.504Z,23.47
2022-10-30T19:37:00.163Z,21.23
2022-10-30T19:40:25.624Z,21.65
2022-10-30T19:43:28.879Z,20.08
2022-10-30T19:46:31.905Z,21.98
2022-10-30T19:49:34.954Z,21.37
2022-10-30T19:52:37.465Z,20.70
2022-10-30T19:55:41.762Z,20.92
2022-10-30T19:58:44.404Z,20.63
2022-10-30T20:01:47.162Z,21.30
2022-10-30T20:04:50.971Z,20.30
2022-10-30T20:07:58.536Z,21.38
2022-10-30T20:11:02.305Z,20.23
2022-10-30T20:14:06.025Z,20.17
2022-10-30T20:17:10.432Z,23.85
2022-10-30T20:20:15.803Z,23.80
2022-10-30T20:23:19.205Z,24.42
2022-10-30T20:26:24.287Z,26.42
2022-10-30T20:29:27.352Z,24.77
2022-10-30T20:32:30.085Z,25.10
2022-10-30T20:35:32.293Z,23.93
2022-10-30T20:38:35.036Z,22.73
2022-10-30T20:41:39.370Z,22.95
2022-10-30T20:44:41.612Z,21.55
2022-10-30T20:47:44.469Z,19.70
2022-10-30T20:50:50.692Z,19.67
2022-10-30T20:53:53.950Z,19.15
2022-10-30T20:56:56.194Z,19.92
2022-10-30T20:59:58.851Z,17.92
2022-10-30T21:03:05.127Z,18.35
2022-10-30T21:06:09.956Z,19.90
2022-10-30T21:09:12.239Z,18.30
2022-10-30T21:12:14.379Z,19.90
2022-10-30T21:15:16.632Z,18.48
2022-10-30T21:18:18.773Z,18.23
2022-10-30T21:21:25.389Z,19.40
2022-10-30T21:24:28.259Z,20.08
2022-10-30T21:27:30.494Z,19.30
2022-10-30T21:30:33.307Z,19.33
2022-10-30T21:33:36.437Z,19.02
2022-10-30T21:36:38.640Z,17.87
2022-10-30T21:39:41.598Z,18.45
2022-10-30T21:42:43.893Z,17.45
2022-10-30T21:45:46.041Z,17.13
2022-10-30T21:48:48.525Z,18.50
2022-10-30T21:51:50.858Z,18.70
2022-10-30T21:54:53.484Z,18.30
2022-10-30T21:57:55.696Z,19.17
2022-10-30T22:00:58.095Z,19.90
2022-10-30T22:04:01.403Z,19.33
2022-10-30T22:07:03.553Z,18.57
2022-10-30T22:10:06.452Z,19.58
2022-10-30T22:13:08.763Z,18.83
2022-10-30T22:16:12.723Z,19.40
2022-10-30T22:19:15.001Z,20.05
2022-10-30T22:22:17.226Z,19.00
2022-10-30T22:25:19.574Z,18.23
2022-10-30T22:28:22.313Z,19.67
2022-10-30T22:31:26.736Z,19.92
2022-10-30T22:34:29.840Z,18.48
2022-10-30T22:37:33.019Z,20.10
2022-10-30T22:40:36.114Z,18.67
2022-10-30T22:43:40.037Z,19.55
2022-10-30T22:46:43.232Z,18.73
2022-10-30T22:49:46.223Z,19.35
2022-10-30T22:52:48.907Z,19.67
2022-10-30T22:55:51.296Z,20.35
2022-10-30T22:58:53.954Z,20.52
2022-10-30T23:01:56.446Z,19.65
2022-10-30T23:04:58.650Z,19.80
2022-10-30T23:08:00.804Z,20.10
2022-10-30T23:11:04.291Z,19.60
2022-10-30T23:14:06.422Z,19.90
2022-10-30T23:17:08.544Z,19.95
2022-10-30T23:20:10.844Z,19.48
2022-10-30T23:23:14.048Z,19.40
2022-10-30T23:26:23.798Z,19.30
2022-10-30T23:29:26.790Z,19.83
2022-10-30T23:32:29.880Z,19.75
2022-10-30T23:35:32.972Z,19.40
2022-10-30T23:38:36.075Z,18.30
2022-10-30T23:41:39.158Z,19.73
2022-10-30T23:44:42.150Z,19.63
2022-10-30T23:47:45.351Z,19.27
2022-10-30T23:50:48.331Z,18.52
2022-10-30T23:53:51.536Z,19.37
2022-10-30T23:56:54.423Z,18.75
2022-10-30T23:59:56.726Z,18.95
